KFKN/FKN METAR and TAF weather

Enter ICAO airport designator
Station Type Date Time Source
KFKN METAR 2018/12/19 10:15 UTC NOAA

KFKN 191015Z AUTO 00000KT 10SM CLR M04/M04 A3023 RMK AO2 T10401043


Station Type Date Time Source
KFKN Decoded METAR 2018/12/19 10:15 UTC NOAA

Franklin / J B Rose, VA, United States (KFKN) 36-42N 076-54W
Dec 19, 2018 - 05:15 AM EST / 2018.12.19 1015 UTC
Wind: Calm:0
Visibility: 10 mile(s):0
Sky conditions: clear
Temperature: 24.8 F (-4.0 C)
Dew Point: 24.3 F (-4.3 C)
Relative Humidity: 97%
Pressure (altimeter): 30.23 in. Hg (1023 hPa)
ob: KFKN 191015Z AUTO 00000KT 10SM CLR M04/M04 A3023 RMK AO2 T10401043
cycle: 10

Station Type Date Time Source
KFKN TAF UTC NOAA

Error!


Example: see airport list